Time;durP1;ratioP1;P1;durP2;ratioP2;P2;SDS_P1;SDS_P2;PMS_P1;PMS_P2;Temp;Humidity;BMP_temperature;BMP_pressure;BME280_temperature;BME280_humidity;BME280_pressure;Samples;Min_cycle;Max_cycle;Signal;HPM_P1;HPM_P2
2021/10/19 00:01:48;;;;;;;27.62;13.83;;;;;;;8.70;81.61;101165.13;1795302;79;25514;-56
2021/10/19 00:04:16;;;;;;;24.70;14.75;;;;;;;8.70;81.80;101172.69;1795235;79;29610;-57
2021/10/19 00:06:42;;;;;;;25.30;14.43;;;;;;;8.71;81.81;101178.88;1795168;79;25872;-56
2021/10/19 00:09:09;;;;;;;21.73;14.87;;;;;;;8.71;81.94;101176.98;1795202;79;25612;-56
2021/10/19 00:11:36;;;;;;;21.90;14.95;;;;;;;8.72;81.87;101175.12;1795243;79;26640;-56
2021/10/19 00:14:02;;;;;;;24.37;14.47;;;;;;;8.72;81.95;101180.52;1795272;79;25497;-56
2021/10/19 00:16:29;;;;;;;22.25;14.03;;;;;;;8.71;81.90;101186.42;1770804;79;27507;-56
2021/10/19 00:18:56;;;;;;;21.80;13.18;;;;;;;8.71;82.08;101191.82;1767842;81;25817;-56
2021/10/19 00:21:23;;;;;;;22.27;13.75;;;;;;;8.70;82.09;101188.88;1767925;81;25621;-56
2021/10/19 00:23:50;;;;;;;19.35;12.98;;;;;;;8.69;82.06;101184.55;1767882;81;26122;-56
2021/10/19 00:26:17;;;;;;;20.57;13.40;;;;;;;8.69;82.19;101180.50;1767937;81;25645;-57
2021/10/19 00:28:44;;;;;;;17.50;12.45;;;;;;;8.70;82.22;101179.44;1767927;81;28119;-57
2021/10/19 00:31:11;;;;;;;21.27;12.55;;;;;;;8.69;82.21;101187.25;1767824;81;25808;-57
2021/10/19 00:33:39;;;;;;;21.27;13.45;;;;;;;8.69;82.40;101187.25;1767876;81;25519;-57
2021/10/19 00:36:06;;;;;;;19.23;13.65;;;;;;;8.69;82.40;101187.25;1767872;81;26205;-57
2021/10/19 00:38:33;;;;;;;19.23;13.38;;;;;;;8.69;82.35;101185.10;1767953;81;25681;-57
2021/10/19 00:41:00;;;;;;;19.77;13.85;;;;;;;8.68;82.46;101189.66;1767939;81;27835;-57
2021/10/19 00:43:27;;;;;;;21.10;13.60;;;;;;;8.68;82.48;101189.66;1767842;81;25685;-57
2021/10/19 00:45:56;;;;;;;27.37;15.48;;;;;;;8.67;82.38;101178.63;1767919;81;25621;-57
2021/10/19 00:48:28;;;;;;;20.82;14.00;;;;;;;8.67;82.41;101175.94;1767995;81;26526;-56
2021/10/19 00:50:56;;;;;;;19.82;12.70;;;;;;;8.67;82.54;101185.38;1767961;81;25539;-55
2021/10/19 00:53:26;;;;;;;21.95;13.68;;;;;;;8.66;82.64;101182.95;1767910;81;28202;-57
2021/10/19 00:55:55;;;;;;;23.73;14.68;;;;;;;8.66;82.81;101177.55;1767821;81;25865;-58
2021/10/19 00:58:22;;;;;;;24.50;14.40;;;;;;;8.64;82.51;101176.47;1767908;81;25674;-58
2021/10/19 01:00:50;;;;;;;23.92;14.68;;;;;;;8.65;82.64;101171.88;1767853;81;26187;-58
2021/10/19 01:03:17;;;;;;;22.37;13.90;;;;;;;8.65;82.86;101184.02;1768196;81;25535;-58
2021/10/19 01:05:46;;;;;;;20.30;12.82;;;;;;;8.64;82.88;101183.77;1767971;81;27501;-58
2021/10/19 01:08:13;;;;;;;22.30;13.18;;;;;;;8.61;82.79;101175.67;1767845;81;25638;-58
2021/10/19 01:10:43;;;;;;;19.15;13.05;;;;;;;8.60;82.77;101180.81;1767915;81;25229;-56
2021/10/19 01:13:11;;;;;;;16.32;12.28;;;;;;;8.60;82.79;101180.81;1767892;81;25594;-57
2021/10/19 01:15:38;;;;;;;25.10;14.78;;;;;;;8.61;82.91;101183.76;1778800;79;25465;-57
2021/10/19 01:18:05;;;;;;;22.07;13.45;;;;;;;8.62;83.16;101186.73;1795283;79;27354;-57
2021/10/19 01:20:36;;;;;;;20.70;14.28;;;;;;;8.63;83.21;101191.58;1795346;79;25924;-57
2021/10/19 01:23:05;;;;;;;20.77;13.45;;;;;;;8.63;83.28;101191.58;1795468;79;25675;-57
2021/10/19 01:25:33;;;;;;;19.67;14.03;;;;;;;8.64;82.95;101187.27;1795615;79;26078;-57
2021/10/19 01:28:04;;;;;;;20.55;13.58;;;;;;;8.65;83.06;101190.23;1795487;79;25653;-56
2021/10/19 01:30:32;;;;;;;21.00;12.80;;;;;;;8.66;83.14;101183.74;1795063;79;30976;-57
2021/10/19 01:32:59;;;;;;;16.35;12.07;;;;;;;8.65;83.23;101174.05;1795349;79;25211;-58
2021/10/19 01:35:40;;;;;;;19.15;12.78;;;;;;;8.67;83.42;101177.83;1795396;79;25520;-58
2021/10/19 01:38:12;;;;;;;18.65;12.33;;;;;;;8.67;83.31;101175.13;1794214;79;26134;-58
2021/10/19 01:40:40;;;;;;;18.35;11.78;;;;;;;8.67;83.17;101168.39;1795424;79;25202;-58
2021/10/19 01:43:15;;;;;;;19.65;12.35;;;;;;;8.68;83.38;101168.64;1795401;79;27458;-58
2021/10/19 01:45:43;;;;;;;18.07;11.85;;;;;;;8.70;83.44;101167.30;1795374;79;25210;-58
2021/10/19 01:48:10;;;;;;;20.12;12.10;;;;;;;8.70;83.31;101165.95;1795410;79;25615;-58
2021/10/19 01:50:37;;;;;;;17.60;12.35;;;;;;;8.72;83.42;101158.94;1795373;79;25550;-57
2021/10/19 01:53:08;;;;;;;17.82;12.18;;;;;;;8.71;83.22;101164.84;1795424;79;25519;-58
2021/10/19 01:55:38;;;;;;;19.65;12.80;;;;;;;8.72;83.28;101163.78;1795337;79;27469;-58
2021/10/19 01:58:07;;;;;;;19.92;12.47;;;;;;;8.71;83.27;101155.95;1795269;79;25458;-58
2021/10/19 02:00:36;;;;;;;23.20;12.33;;;;;;;8.71;83.31;101155.95;1795649;79;25529;-57
2021/10/19 02:03:08;;;;;;;20.85;13.20;;;;;;;8.70;83.19;101147.59;1795471;79;25579;-57
2021/10/19 02:05:36;;;;;;;18.45;12.80;;;;;;;8.70;83.40;101148.42;1795260;79;25639;-57
2021/10/19 02:08:05;;;;;;;22.13;12.35;;;;;;;8.71;83.41;101150.56;1795372;79;27462;-56
2021/10/19 02:10:33;;;;;;;20.00;12.40;;;;;;;8.72;83.54;101152.19;1795475;79;25916;-56
2021/10/19 02:13:06;;;;;;;21.10;12.78;;;;;;;8.72;83.55;101148.94;1795518;79;25457;-57
2021/10/19 02:15:34;;;;;;;20.32;12.20;;;;;;;8.71;83.62;101145.17;1795237;79;25566;-56
2021/10/19 02:18:02;;;;;;;20.40;12.13;;;;;;;8.72;83.57;101146.80;1795411;79;25654;-57
2021/10/19 02:20:31;;;;;;;19.48;13.35;;;;;;;8.72;83.44;101152.98;1795379;79;27453;-57
2021/10/19 02:23:00;;;;;;;17.50;12.23;;;;;;;8.73;83.46;101147.05;1795539;79;25623;-56
2021/10/19 02:25:27;;;;;;;19.40;12.90;;;;;;;8.73;83.45;101155.13;1795487;79;25599;-56
2021/10/19 02:27:55;;;;;;;21.65;13.32;;;;;;;8.73;83.67;101158.63;1795346;79;26042;-56
2021/10/19 02:30:23;;;;;;;18.40;13.38;;;;;;;8.71;83.48;101164.84;1795391;79;25481;-57
2021/10/19 02:32:49;;;;;;;24.45;13.98;;;;;;;8.70;83.57;101164.60;1795359;79;27453;-57
2021/10/19 02:35:21;;;;;;;21.68;14.65;;;;;;;8.68;83.58;101167.29;1795234;79;25795;-57
2021/10/19 02:37:49;;;;;;;19.20;14.73;;;;;;;8.69;83.74;101171.62;1795313;79;25658;-56
2021/10/19 02:40:17;;;;;;;21.85;14.75;;;;;;;8.68;83.85;101169.98;1795276;79;25584;-56
2021/10/19 02:42:45;;;;;;;20.95;14.87;;;;;;;8.70;83.89;101182.65;1795392;79;25641;-58
2021/10/19 02:45:14;;;;;;;19.65;13.70;;;;;;;8.70;83.79;101177.25;1795360;79;28190;-56
2021/10/19 02:47:41;;;;;;;22.22;14.15;;;;;;;8.70;83.86;101174.56;1795386;79;25893;-57
2021/10/19 02:50:11;;;;;;;23.32;14.73;;;;;;;8.70;83.76;101178.09;1795359;79;25624;-58
2021/10/19 02:52:38;;;;;;;23.18;14.58;;;;;;;8.69;83.80;101184.55;1795314;79;25498;-57
2021/10/19 02:55:07;;;;;;;20.23;13.40;;;;;;;8.70;83.56;101181.30;1795316;79;25641;-57
2021/10/19 02:57:34;;;;;;;;;;;;;;;8.69;83.50;101183.75;1798038;79;27475;-58
2021/10/19 03:00:01;;;;;;;23.35;13.45;;;;;;;8.65;83.42;101181.32;1795273;79;25690;-58
2021/10/19 03:02:28;;;;;;;25.62;14.75;;;;;;;8.62;83.53;101180.55;1795403;79;25619;-57
2021/10/19 03:04:55;;;;;;;23.98;13.62;;;;;;;8.59;83.73;101184.03;1795263;79;25478;-58
2021/10/19 03:07:27;;;;;;;22.85;13.65;;;;;;;8.57;83.62;101180.00;1795351;79;25678;-57
2021/10/19 03:09:53;;;;;;;21.62;14.05;;;;;;;8.55;83.79;101180.27;1795377;79;27490;-57
2021/10/19 03:12:20;;;;;;;22.80;13.55;;;;;;;8.52;83.78;101174.62;1795255;79;25680;-57
2021/10/19 03:14:47;;;;;;;18.55;13.22;;;;;;;8.50;83.83;101172.75;1795265;79;25652;-57
2021/10/19 03:17:14;;;;;;;21.55;13.20;;;;;;;8.48;83.87;101178.41;1795210;79;25561;-57
2021/10/19 03:19:42;;;;;;;19.75;13.78;;;;;;;8.45;83.88;101172.77;1795348;79;25627;-58
2021/10/19 03:22:09;;;;;;;19.90;13.03;;;;;;;8.45;84.15;101180.30;1795411;79;27484;-56
2021/10/19 03:24:36;;;;;;;20.50;13.85;;;;;;;8.44;84.25;101182.72;1795229;79;25695;-56
2021/10/19 03:27:04;;;;;;;23.55;13.88;;;;;;;8.47;84.38;101188.12;1795286;79;25513;-56
2021/10/19 03:29:31;;;;;;;23.60;12.90;;;;;;;8.46;84.26;101188.64;1795282;79;25730;-58
2021/10/19 03:31:58;;;;;;;22.42;14.10;;;;;;;8.43;84.17;101186.51;1795352;79;25703;-57
2021/10/19 03:34:26;;;;;;;22.65;13.43;;;;;;;8.45;84.35;101186.24;1795273;79;27513;-57
2021/10/19 03:36:54;;;;;;;24.03;14.60;;;;;;;8.45;84.45;101188.94;1795479;79;25938;-59
2021/10/19 03:39:20;;;;;;;22.15;13.45;;;;;;;8.45;84.54;101180.84;1795210;79;25570;-57
2021/10/19 03:41:49;;;;;;;22.37;14.87;;;;;;;8.46;84.57;101178.41;1795233;79;25541;-58
2021/10/19 03:44:16;;;;;;;21.40;13.55;;;;;;;8.46;84.65;101180.55;1795312;79;25515;-58
2021/10/19 03:46:44;;;;;;;21.65;14.78;;;;;;;8.46;84.53;101179.20;1795326;79;28201;-58
2021/10/19 03:49:15;;;;;;;22.95;13.50;;;;;;;8.47;84.58;101179.48;1795314;79;25522;-58
2021/10/19 03:51:42;;;;;;;23.87;13.83;;;;;;;8.47;84.58;101179.48;1795192;79;25519;-56
2021/10/19 03:54:10;;;;;;;24.77;14.80;;;;;;;8.45;84.53;101176.25;1795266;79;26152;-57
2021/10/19 03:56:36;;;;;;;21.48;14.65;;;;;;;8.44;84.55;101178.67;1795295;79;25536;-56
2021/10/19 03:59:03;;;;;;;22.05;14.68;;;;;;;8.41;84.72;101174.61;1795306;79;28317;-56
2021/10/19 04:01:30;;;;;;;21.02;13.88;;;;;;;8.41;84.80;101167.88;1795207;79;25829;-57
2021/10/19 04:03:57;;;;;;;19.52;13.28;;;;;;;8.42;84.86;101163.28;1795240;79;25556;-57
2021/10/19 04:06:24;;;;;;;24.27;14.35;;;;;;;8.41;84.63;101167.88;1795254;79;26245;-57
2021/10/19 04:08:50;;;;;;;21.62;13.75;;;;;;;8.39;84.63;101173.26;1795254;79;25650;-57
2021/10/19 04:11:17;;;;;;;19.57;13.72;;;;;;;8.37;84.71;101168.14;1795330;79;28196;-57
2021/10/19 04:13:48;;;;;;;21.27;13.75;;;;;;;8.34;84.62;101174.09;1795216;79;25948;-57
2021/10/19 04:16:17;;;;;;;22.32;12.78;;;;;;;8.30;84.65;101174.35;1788571;79;25886;-57
2021/10/19 04:18:44;;;;;;;18.57;12.78;;;;;;;8.30;84.67;101180.30;1767871;81;25576;-57
2021/10/19 04:21:11;;;;;;;28.15;13.65;;;;;;;8.27;84.57;101176.23;1767942;81;25599;-58
2021/10/19 04:23:38;;;;;;;21.20;13.38;;;;;;;8.20;84.42;101171.12;1767910;81;27489;-57
2021/10/19 04:26:07;;;;;;;18.98;12.00;;;;;;;8.17;84.48;101176.25;1767822;81;25911;-57
2021/10/19 04:28:36;;;;;;;19.67;12.30;;;;;;;8.12;84.50;101169.00;1767883;81;25582;-56
2021/10/19 04:31:03;;;;;;;20.30;12.75;;;;;;;8.11;84.67;101164.67;1767881;81;25630;-56
2021/10/19 04:33:30;;;;;;;19.90;12.00;;;;;;;8.09;84.72;101170.88;1767951;81;25907;-56
2021/10/19 04:35:56;;;;;;;20.40;12.43;;;;;;;8.07;84.71;101173.05;1767880;81;28294;-57
2021/10/19 04:38:24;;;;;;;15.55;12.15;;;;;;;8.04;84.74;101167.64;1767838;81;25753;-57
2021/10/19 04:40:50;;;;;;;19.15;12.55;;;;;;;8.02;84.88;101170.36;1767858;81;25843;-57
2021/10/19 04:43:17;;;;;;;20.77;12.43;;;;;;;8.01;84.82;101175.46;1767951;81;25607;-57
2021/10/19 04:45:45;;;;;;;22.25;11.90;;;;;;;8.01;85.03;101172.22;1767910;81;25606;-57
2021/10/19 04:48:14;;;;;;;16.60;10.72;;;;;;;8.00;85.09;101165.23;1767909;81;28175;-57
2021/10/19 04:50:41;;;;;;;17.42;11.03;;;;;;;7.97;84.81;101168.46;1768126;81;25516;-58
2021/10/19 04:53:08;;;;;;;19.07;11.75;;;;;;;7.96;85.12;101175.47;1767869;81;25424;-57
2021/10/19 04:55:34;;;;;;;18.62;10.98;;;;;;;7.94;85.07;101169.00;1767984;81;26150;-57
2021/10/19 04:58:01;;;;;;;15.28;10.70;;;;;;;7.91;84.91;101178.95;1768118;81;25678;-58
2021/10/19 05:00:28;;;;;;;16.40;10.90;;;;;;;7.89;85.09;101176.28;1768065;81;28105;-56
2021/10/19 05:02:56;;;;;;;16.12;11.03;;;;;;;7.86;85.08;101176.26;1767978;81;25824;-57
2021/10/19 05:05:23;;;;;;;15.10;9.88;;;;;;;7.84;84.99;101172.48;1768050;81;25681;-57
2021/10/19 05:07:49;;;;;;;15.43;10.43;;;;;;;7.82;85.09;101177.34;1789793;80;25518;-57
2021/10/19 05:10:17;;;;;;;16.23;10.48;;;;;;;7.79;85.29;101177.88;1758546;81;25516;-58
2021/10/19 05:12:48;;;;;;;15.50;10.68;;;;;;;7.78;85.42;101187.05;1737556;82;28088;-58
2021/10/19 05:15:16;;;;;;;17.52;10.53;;;;;;;7.76;85.46;101181.09;1767943;81;25455;-59
2021/10/19 05:17:44;;;;;;;14.65;10.38;;;;;;;7.75;85.55;101186.23;1768008;80;25473;-59
2021/10/19 05:20:13;;;;;;;16.60;11.18;;;;;;;7.73;85.50;101180.31;1767978;81;25598;-58
2021/10/19 05:22:40;;;;;;;16.95;11.15;;;;;;;7.73;85.48;101177.61;1768310;81;25475;-57
2021/10/19 05:25:09;;;;;;;17.55;10.03;;;;;;;7.73;85.66;101180.31;1768025;81;27626;-59
2021/10/19 05:27:36;;;;;;;14.73;9.95;;;;;;;7.71;85.62;101179.74;1767968;81;25424;-57
2021/10/19 05:30:05;;;;;;;18.32;11.78;;;;;;;7.71;86.15;101182.44;1789816;80;25652;-57
2021/10/19 05:32:32;;;;;;;17.27;10.93;;;;;;;7.71;85.91;101177.59;1758527;81;26071;-56
2021/10/19 05:34:59;;;;;;;17.48;10.90;;;;;;;7.69;85.93;101174.38;1737553;82;25536;-57
2021/10/19 05:37:27;;;;;;;16.00;11.40;;;;;;;7.66;85.93;101186.47;1768024;81;28002;-58
2021/10/19 05:39:54;;;;;;;21.85;11.60;;;;;;;7.64;86.11;101192.16;1767913;81;26031;-58
2021/10/19 05:42:21;;;;;;;17.67;10.45;;;;;;;7.63;86.03;101199.15;1768012;81;25463;-59
2021/10/19 05:44:48;;;;;;;19.30;11.48;;;;;;;7.59;86.14;101198.84;1767981;81;25605;-59
2021/10/19 05:47:15;;;;;;;17.50;10.98;;;;;;;7.57;86.35;101198.85;1768062;81;25666;-59
2021/10/19 05:49:43;;;;;;;17.73;9.58;;;;;;;7.57;86.36;101199.66;1768022;81;27465;-59
2021/10/19 05:52:10;;;;;;;14.95;10.15;;;;;;;7.55;86.54;101205.84;1789677;80;25461;-59
2021/10/19 05:54:37;;;;;;;17.07;10.75;;;;;;;7.54;86.75;101206.91;1758531;81;25522;-57
2021/10/19 05:57:03;;;;;;;15.50;10.08;;;;;;;7.54;86.63;101206.11;1737435;82;25628;-57
2021/10/19 05:59:30;;;;;;;15.43;10.68;;;;;;;7.54;86.81;101204.22;1768039;81;25658;-57
2021/10/19 06:01:59;;;;;;;13.48;9.85;;;;;;;7.55;86.87;101209.09;1768083;81;27656;-58
2021/10/19 06:04:27;;;;;;;14.98;9.95;;;;;;;7.56;86.88;101207.99;1768044;81;25526;-59
2021/10/19 06:06:56;;;;;;;15.20;9.43;;;;;;;7.54;87.13;101217.68;1768036;81;25693;-59
2021/10/19 06:09:25;;;;;;;14.28;9.03;;;;;;;7.52;87.06;101211.76;1768086;81;26077;-58
2021/10/19 06:12:15;;;;;;;15.30;9.20;;;;;;;7.54;87.12;101208.80;1789828;80;25690;-58
2021/10/19 06:14:44;;;;;;;13.93;9.33;;;;;;;7.56;87.26;101207.99;1646331;87;27565;-58
2021/10/19 06:17:11;;;;;;;19.63;13.13;;;;;;;7.57;87.37;101205.03;1646569;87;25731;-59
2021/10/19 06:19:38;;;;;;;21.48;10.58;;;;;;;7.60;87.46;101201.02;1643735;87;25707;-59
2021/10/19 06:22:05;;;;;;;15.55;10.58;;;;;;;7.65;87.79;101205.06;1643730;87;26120;-59
2021/10/19 06:24:32;;;;;;;18.27;10.03;;;;;;;7.69;87.80;101194.56;1618532;88;25644;-59
2021/10/19 06:26:59;;;;;;;14.43;9.50;;;;;;;7.72;87.86;101204.27;1643777;87;28171;-59
2021/10/19 06:29:27;;;;;;;13.15;9.05;;;;;;;7.73;87.79;101202.38;1643677;87;25790;-59
2021/10/19 06:31:54;;;;;;;14.50;9.70;;;;;;;7.72;87.74;101191.34;1618477;88;25604;-59
2021/10/19 06:34:21;;;;;;;15.50;9.03;;;;;;;7.75;88.01;101201.59;1643740;87;26091;-58
2021/10/19 06:36:49;;;;;;;17.05;10.50;;;;;;;7.78;88.01;101207.25;1643738;87;25607;-57
2021/10/19 06:39:16;;;;;;;17.42;10.88;;;;;;;7.80;87.89;101200.25;1626055;87;28120;-57
2021/10/19 06:41:43;;;;;;;18.32;10.68;;;;;;;7.80;87.88;101202.94;1645296;87;25838;-58
2021/10/19 06:44:10;;;;;;;20.95;11.12;;;;;;;7.81;87.91;101196.46;1645398;87;25693;-57
2021/10/19 06:46:39;;;;;;;18.00;11.63;;;;;;;7.79;87.71;101200.77;1645356;87;25819;-58
2021/10/19 06:49:08;;;;;;;16.48;10.58;;;;;;;7.80;87.74;101197.55;1652768;86;25650;-58
2021/10/19 06:51:34;;;;;;;16.73;10.35;;;;;;;7.80;87.97;101191.62;1630510;86;27496;-58
2021/10/19 06:54:01;;;;;;;19.73;10.35;;;;;;;7.82;87.91;101198.09;1652671;86;25831;-58
2021/10/19 06:56:28;;;;;;;15.13;9.90;;;;;;;7.80;87.78;101205.09;1652709;86;25578;-58
2021/10/19 06:58:55;;;;;;;14.73;10.43;;;;;;;7.80;87.80;101201.59;1652705;86;26162;-58
2021/10/19 07:01:22;;;;;;;16.62;10.05;;;;;;;7.81;87.96;101211.27;1652729;86;25673;-58
2021/10/19 07:03:49;;;;;;;14.18;10.30;;;;;;;7.79;87.89;101205.35;1652720;86;28367;-58
2021/10/19 07:06:16;;;;;;;16.32;10.58;;;;;;;7.80;88.04;101214.52;1652656;86;25548;-58
2021/10/19 07:08:42;;;;;;;18.85;10.23;;;;;;;7.82;88.25;101207.52;1652753;86;25737;-59
2021/10/19 07:11:09;;;;;;;16.07;11.18;;;;;;;7.82;87.98;101210.21;1673890;84;25562;-58
2021/10/19 07:13:36;;;;;;;18.30;11.38;;;;;;;7.83;88.13;101213.16;1687785;84;25661;-59
2021/10/19 07:16:04;;;;;;;18.98;11.40;;;;;;;7.82;88.10;101217.74;1671410;85;27595;-59
2021/10/19 07:18:31;;;;;;;21.50;12.03;;;;;;;7.81;88.12;101216.66;1671365;85;25774;-59
2021/10/19 07:20:57;;;;;;;19.30;11.85;;;;;;;7.82;88.45;101219.64;1674117;85;25500;-58
2021/10/19 07:23:25;;;;;;;20.70;12.00;;;;;;;7.81;88.35;101222.05;1674088;84;26150;-59
2021/10/19 07:25:52;;;;;;;16.87;10.93;;;;;;;7.77;88.23;101215.05;1674150;84;25493;-57
2021/10/19 07:28:19;;;;;;;18.98;11.15;;;;;;;7.79;88.47;101215.58;1674119;85;28150;-59
2021/10/19 07:30:45;;;;;;;24.10;10.88;;;;;;;7.83;88.64;101213.98;1674046;85;25700;-58
2021/10/19 07:33:13;;;;;;;16.40;10.88;;;;;;;7.84;88.69;101216.93;1674109;85;25616;-58
2021/10/19 07:35:40;;;;;;;18.95;11.25;;;;;;;7.86;88.77;101208.03;1674034;85;25525;-58
2021/10/19 07:38:08;;;;;;;18.48;10.90;;;;;;;7.84;88.54;101204.01;1674126;85;25525;-58
2021/10/19 07:40:35;;;;;;;19.80;11.45;;;;;;;7.84;88.74;101200.77;1674105;85;27518;-57
2021/10/19 07:43:02;;;;;;;19.17;11.65;;;;;;;7.86;88.75;101194.57;1674035;85;25695;-58
2021/10/19 07:45:29;;;;;;;20.25;12.37;;;;;;;7.87;88.90;101188.66;1674116;85;25723;-58
2021/10/19 07:48:01;;;;;;;18.30;11.90;;;;;;;7.89;88.95;101192.44;1674078;85;25664;-59
2021/10/19 07:50:30;;;;;;;16.00;11.05;;;;;;;7.91;89.27;101192.97;1674150;85;25587;-57
2021/10/19 07:52:59;;;;;;;17.57;11.70;;;;;;;7.92;89.19;101195.41;1674103;85;27490;-57
2021/10/19 07:55:30;;;;;;;18.15;11.73;;;;;;;7.96;89.37;101189.73;1674136;85;25863;-57
2021/10/19 07:57:56;;;;;;;20.08;12.07;;;;;;;8.00;89.58;101190.83;1673943;85;25741;-58
2021/10/19 08:00:26;;;;;;;19.70;12.33;;;;;;;8.01;89.40;101187.59;1674050;84;26230;-58
2021/10/19 08:02:54;;;;;;;21.17;12.55;;;;;;;8.04;89.65;101183.02;1674140;85;25516;-59
2021/10/19 08:05:21;;;;;;;23.77;13.05;;;;;;;8.07;89.62;101187.03;1674118;85;28177;-59
2021/10/19 08:07:51;;;;;;;23.50;13.08;;;;;;;8.07;89.64;101189.22;1674018;85;25787;-58
2021/10/19 08:10:22;;;;;;;18.57;12.28;;;;;;;8.06;89.44;101194.32;1674079;85;25687;-59
2021/10/19 08:12:50;;;;;;;24.65;12.58;;;;;;;8.05;89.58;101194.04;1674676;84;25715;-58
2021/10/19 08:15:18;;;;;;;21.33;14.07;;;;;;;8.07;89.64;101196.47;1697407;84;25660;-58
2021/10/19 08:17:46;;;;;;;20.68;13.18;;;;;;;8.09;89.71;101198.34;1697327;84;28264;-58
2021/10/19 08:20:15;;;;;;;18.67;12.58;;;;;;;8.08;89.77;101196.20;1697270;84;25874;-58
2021/10/19 08:22:43;;;;;;;26.65;15.13;;;;;;;8.12;90.06;101195.12;1697370;84;25513;-59
2021/10/19 08:25:11;;;;;;;27.60;14.15;;;;;;;8.14;90.03;101187.56;1697312;84;26099;-58
2021/10/19 08:27:42;;;;;;;24.72;14.90;;;;;;;8.17;90.18;101189.20;1697401;84;25721;-58
2021/10/19 08:30:11;;;;;;;33.18;16.05;;;;;;;8.18;90.09;101197.55;1697499;84;28177;-58
2021/10/19 08:32:39;;;;;;;;;;;;;;;8.20;90.23;101204.02;1699944;84;25829;-59
2021/10/19 08:35:07;;;;;;;32.85;15.48;;;;;;;8.23;90.28;101207.52;1697524;84;25641;-58
2021/10/19 08:37:35;;;;;;;27.95;15.40;;;;;;;8.23;90.42;101201.58;1697683;84;25657;-58
2021/10/19 08:40:05;;;;;;;36.00;16.65;;;;;;;8.27;90.48;101206.44;1697504;84;25673;-58
2021/10/19 08:42:32;;;;;;;30.23;15.48;;;;;;;8.30;90.54;101207.25;1697656;84;27492;-58
2021/10/19 08:45:01;;;;;;;37.67;18.52;;;;;;;8.34;90.69;101215.88;1697412;84;25711;-57
2021/10/19 08:47:28;;;;;;;32.13;16.70;;;;;;;8.36;90.68;101216.93;1697624;84;25656;-58
2021/10/19 08:49:55;;;;;;;33.90;16.73;;;;;;;8.39;90.77;101212.35;1697486;84;26217;-58
2021/10/19 08:52:22;;;;;;;165.62;82.47;;;;;;;8.40;90.71;101211.28;1697519;84;25724;-59
2021/10/19 08:54:49;;;;;;;39.40;20.95;;;;;;;8.44;90.97;101209.67;1697482;84;27639;-58
2021/10/19 08:57:17;;;;;;;37.25;17.95;;;;;;;8.51;91.34;101205.36;1697385;84;25552;-58
2021/10/19 08:59:47;;;;;;;37.47;20.20;;;;;;;8.57;91.37;101201.58;1697798;84;25653;-59
2021/10/19 09:02:15;;;;;;;40.03;20.20;;;;;;;8.63;91.35;101211.80;1697565;84;26260;-57
2021/10/19 09:04:43;;;;;;;49.45;21.30;;;;;;;8.69;91.55;101208.83;1697499;84;25657;-58
2021/10/19 09:07:12;;;;;;;37.45;18.98;;;;;;;8.78;91.94;101211.77;1697500;84;27496;-57
2021/10/19 09:09:39;;;;;;;40.78;19.82;;;;;;;8.87;91.67;101210.14;1697470;84;27311;-58
2021/10/19 09:12:07;;;;;;;46.90;21.70;;;;;;;8.92;91.60;101203.89;1697476;84;25646;-59
2021/10/19 09:14:37;;;;;;;36.93;20.10;;;;;;;8.94;91.18;101209.84;1698609;84;25666;-58
2021/10/19 09:17:05;;;;;;;51.00;21.80;;;;;;;8.94;91.06;101205.25;1699507;84;25685;-58
2021/10/19 09:19:35;;;;;;;42.03;20.75;;;;;;;9.01;91.69;101202.26;1699482;84;27560;-58
2021/10/19 09:22:06;;;;;;;42.15;20.70;;;;;;;9.11;91.88;101197.37;1672031;84;25563;-59
2021/10/19 09:24:41;;;;;;;41.55;20.55;;;;;;;9.21;91.99;101197.84;1699509;84;25592;-58
2021/10/19 09:27:17;;;;;;;39.42;19.42;;;;;;;9.26;91.86;101195.95;1699123;84;26119;-58
2021/10/19 09:29:50;;;;;;;45.52;21.17;;;;;;;9.30;91.39;101196.98;1699494;84;25548;-58
2021/10/19 09:32:19;;;;;;;39.80;21.05;;;;;;;9.37;91.72;101200.73;1699437;84;28133;-57
2021/10/19 09:34:48;;;;;;;43.68;20.95;;;;;;;9.48;92.20;101209.58;1699404;84;25689;-57
2021/10/19 09:37:21;;;;;;;47.75;22.10;;;;;;;9.57;91.83;101206.58;1699578;83;25644;-58
2021/10/19 09:39:51;;;;;;;44.25;21.45;;;;;;;9.66;91.69;101208.13;1699384;84;25574;-58
2021/10/19 09:42:23;;;;;;;39.55;21.00;;;;;;;9.71;91.45;101191.89;1699481;84;25501;-58
2021/10/19 09:45:00;;;;;;;43.25;21.30;;;;;;;9.77;91.20;101191.30;1699446;84;29727;-58
2021/10/19 09:47:37;;;;;;;37.10;20.80;;;;;;;9.81;91.18;101185.61;1699381;84;25913;-58
2021/10/19 09:50:09;;;;;;;39.45;21.33;;;;;;;9.86;91.05;101183.67;1699476;84;25492;-58
2021/10/19 09:52:38;;;;;;;42.20;22.20;;;;;;;9.89;90.77;101180.41;1699440;84;25645;-58
2021/10/19 09:55:09;;;;;;;39.03;21.77;;;;;;;9.94;90.98;101177.39;1699725;84;25578;-58
2021/10/19 09:57:42;;;;;;;45.38;22.32;;;;;;;9.99;90.77;101176.00;1699447;84;28114;-57
2021/10/19 10:00:11;;;;;;;48.17;23.60;;;;;;;9.99;90.41;101164.63;1699400;84;25555;-57
2021/10/19 10:02:39;;;;;;;48.87;22.75;;;;;;;9.99;90.22;101173.30;1699553;84;34875;-58
2021/10/19 10:05:07;;;;;;;43.17;22.52;;;;;;;10.01;90.31;101169.76;1699428;84;25652;-58
2021/10/19 10:07:43;;;;;;;41.83;22.42;;;;;;;10.01;90.31;101158.42;1699596;84;25714;-57
2021/10/19 10:10:12;;;;;;;40.83;23.52;;;;;;;10.08;90.91;101155.39;1699048;84;27587;-57
2021/10/19 10:12:39;;;;;;;41.95;23.57;;;;;;;10.07;90.55;101147.81;1699492;83;25530;-57
2021/10/19 10:15:07;;;;;;;43.10;23.65;;;;;;;10.15;90.88;101149.63;1699318;84;25747;-57
2021/10/19 10:17:34;;;;;;;48.65;23.50;;;;;;;10.18;90.66;101157.17;1699371;84;26225;-58
2021/10/19 10:20:09;;;;;;;45.33;23.65;;;;;;;10.21;90.76;101152.55;1699451;84;25687;-58
2021/10/19 10:22:45;;;;;;;42.80;23.85;;;;;;;10.30;91.29;101150.86;1699446;84;27428;-58
2021/10/19 10:25:16;;;;;;;42.48;23.30;;;;;;;10.39;91.40;101150.52;1698892;84;25723;-59
2021/10/19 10:27:43;;;;;;;50.35;25.10;;;;;;;10.44;91.00;101153.16;1699457;84;25681;-58
2021/10/19 10:30:24;;;;;;;42.78;25.23;;;;;;;10.54;91.12;101148.72;1699393;84;26133;-58
2021/10/19 10:32:54;;;;;;;43.83;23.95;;;;;;;10.61;91.27;101139.73;1699281;84;25822;-57
2021/10/19 10:35:24;;;;;;;43.73;24.70;;;;;;;10.70;91.12;101131.79;1699559;84;28311;-57
2021/10/19 10:37:54;;;;;;;42.45;24.75;;;;;;;10.77;90.88;101136.30;1699364;84;25614;-57
2021/10/19 10:40:43;;;;;;;47.27;25.50;;;;;;;10.82;90.76;101134.87;1699381;83;25602;-59
2021/10/19 10:43:24;;;;;;;44.80;25.30;;;;;;;10.87;90.54;101131.31;1699396;84;25473;-58
2021/10/19 10:46:14;;;;;;;42.65;24.57;;;;;;;10.94;90.50;101123.63;1698592;84;25641;-58
2021/10/19 10:48:42;;;;;;;43.17;25.43;;;;;;;11.03;90.76;101132.70;1699421;84;28200;-59
2021/10/19 10:51:13;;;;;;;42.23;26.15;;;;;;;11.12;90.57;101128.82;1699282;84;25582;-58
2021/10/19 10:53:43;;;;;;;49.15;26.80;;;;;;;11.21;91.31;101127.84;1699436;84;25491;-60
2021/10/19 10:56:13;;;;;;;39.13;25.77;;;;;;;11.42;91.87;101122.69;1699329;84;26085;-58
2021/10/19 10:58:42;;;;;;;44.27;27.27;;;;;;;11.63;91.64;101115.03;1699435;84;25647;-60
2021/10/19 11:01:22;;;;;;;41.03;25.90;;;;;;;11.81;91.12;101118.27;1699639;84;27462;-59
2021/10/19 11:03:52;;;;;;;43.68;27.27;;;;;;;11.93;90.47;101121.33;1699335;84;25636;-59
2021/10/19 11:06:23;;;;;;;37.98;26.37;;;;;;;12.00;89.87;101116.88;1699421;84;25646;-56
2021/10/19 11:08:59;;;;;;;42.05;26.07;;;;;;;12.12;90.00;101120.47;1699358;84;25514;-58
2021/10/19 11:11:30;;;;;;;40.78;27.60;;;;;;;12.19;89.47;101115.48;1699454;84;25647;-58
2021/10/19 11:14:04;;;;;;;37.30;25.65;;;;;;;12.31;89.80;101118.50;1699299;84;27510;-59
2021/10/19 11:16:42;;;;;;;36.10;25.55;;;;;;;12.49;89.47;101115.42;1699317;84;25695;-59
2021/10/19 11:19:24;;;;;;;36.40;25.75;;;;;;;12.70;89.69;101110.94;1699427;84;25721;-59
2021/10/19 11:22:02;;;;;;;40.25;25.85;;;;;;;12.85;88.99;101106.55;1698832;84;25848;-59
2021/10/19 11:24:31;;;;;;;35.78;24.80;;;;;;;12.93;88.24;101098.25;1698434;84;25671;-59